createdAt,value
2017-11-05T00:08:25.000Z,19.51
2017-11-05T00:18:25.000Z,19.52
2017-11-05T00:28:28.000Z,19.5
2017-11-05T00:38:25.000Z,19.48
2017-11-05T00:48:25.000Z,19.47
2017-11-05T00:58:25.000Z,19.45
2017-11-05T01:08:25.000Z,19.44
2017-11-05T01:18:25.000Z,19.43
2017-11-05T01:28:25.000Z,19.41
2017-11-05T01:38:25.000Z,19.41
2017-11-05T01:48:25.000Z,19.4
2017-11-05T01:58:25.000Z,19.38
2017-11-05T02:08:25.000Z,19.36
2017-11-05T02:18:25.000Z,19.35
2017-11-05T02:28:25.000Z,19.34
2017-11-05T02:38:25.000Z,19.31
2017-11-05T02:48:25.000Z,19.3
2017-11-05T02:58:25.000Z,19.3
2017-11-05T03:08:25.000Z,19.28
2017-11-05T03:18:25.000Z,19.27
2017-11-05T03:28:25.000Z,19.25
2017-11-05T03:38:25.000Z,19.24
2017-11-05T03:48:25.000Z,19.22
2017-11-05T03:58:25.000Z,19.21
2017-11-05T04:08:25.000Z,19.19
2017-11-05T04:18:25.000Z,19.18
2017-11-05T04:28:25.000Z,19.17
2017-11-05T04:38:25.000Z,19.16
2017-11-05T04:48:25.000Z,19.15
2017-11-05T04:58:25.000Z,19.14
2017-11-05T05:08:26.000Z,19.13
2017-11-05T05:18:26.000Z,19.13
2017-11-05T05:28:26.000Z,19.1
2017-11-05T05:38:26.000Z,19.1
2017-11-05T05:48:27.000Z,19.08
2017-11-05T05:58:26.000Z,19.08
2017-11-05T06:08:26.000Z,19.08
2017-11-05T06:18:26.000Z,19.05
2017-11-05T06:28:26.000Z,19.05
2017-11-05T06:38:26.000Z,19.04
2017-11-05T06:48:26.000Z,19.04
2017-11-05T06:58:26.000Z,19.03
2017-11-05T07:08:26.000Z,19.01
2017-11-05T07:18:26.000Z,19.01
2017-11-05T07:28:26.000Z,19.01
2017-11-05T07:38:26.000Z,19
2017-11-05T07:48:26.000Z,19.01
2017-11-05T07:58:26.000Z,18.98
2017-11-05T08:08:26.000Z,18.98
2017-11-05T08:18:26.000Z,18.98
2017-11-05T08:28:26.000Z,18.96
2017-11-05T08:38:26.000Z,18.96
2017-11-05T08:48:26.000Z,18.93
2017-11-05T08:58:26.000Z,18.93
2017-11-05T09:08:26.000Z,18.94
2017-11-05T09:18:26.000Z,18.94
2017-11-05T09:28:26.000Z,18.96
2017-11-05T09:38:26.000Z,18.93
2017-11-05T09:48:26.000Z,18.925
2017-11-05T09:58:26.000Z,18.94
2017-11-05T10:08:26.000Z,18.94
2017-11-05T10:18:26.000Z,18.92
2017-11-05T10:28:26.000Z,18.89
2017-11-05T10:38:27.000Z,18.93
2017-11-05T10:48:26.000Z,18.99
2017-11-05T10:58:26.000Z,19.07
2017-11-05T11:08:26.000Z,19.08
2017-11-05T11:18:26.000Z,19.08
2017-11-05T11:28:26.000Z,19.07
2017-11-05T11:38:26.000Z,19.07
2017-11-05T11:48:26.000Z,19.06
2017-11-05T11:58:26.000Z,19.07
2017-11-05T12:08:26.000Z,19.07
2017-11-05T12:18:26.000Z,19.08
2017-11-05T12:28:26.000Z,19.09
2017-11-05T12:38:26.000Z,19.12
2017-11-05T12:48:26.000Z,19.11
2017-11-05T12:58:26.000Z,19.12
2017-11-05T13:08:26.000Z,19.14
2017-11-05T13:18:26.000Z,19.12
2017-11-05T13:28:26.000Z,19.15
2017-11-05T13:38:26.000Z,19.14
2017-11-05T13:48:27.000Z,19.11
2017-11-05T13:58:27.000Z,19.09
2017-11-05T14:08:27.000Z,19.1
2017-11-05T14:18:27.000Z,19.13
2017-11-05T14:28:27.000Z,19.12
2017-11-05T14:38:27.000Z,19.19
2017-11-05T14:48:27.000Z,19.17
2017-11-05T14:58:27.000Z,19.17
2017-11-05T15:08:27.000Z,19.28
2017-11-05T15:18:27.000Z,19.52
2017-11-05T15:28:27.000Z,19.35
2017-11-05T15:38:27.000Z,19.28
2017-11-05T15:48:27.000Z,19.25
2017-11-05T15:58:27.000Z,19.21
2017-11-05T16:08:27.000Z,19.18
2017-11-05T16:18:27.000Z,19.17
2017-11-05T16:28:27.000Z,19.17
2017-11-05T16:38:27.000Z,19.14
2017-11-05T16:48:27.000Z,19.12
2017-11-05T16:58:27.000Z,19.16
2017-11-05T17:08:27.000Z,19.13
2017-11-05T17:18:27.000Z,19.1
2017-11-05T17:28:27.000Z,18.99
2017-11-05T17:38:27.000Z,18.95
2017-11-05T17:48:27.000Z,18.93
2017-11-05T17:58:27.000Z,19.02
2017-11-05T18:08:27.000Z,19.06
2017-11-05T18:18:27.000Z,19.04
2017-11-05T18:28:27.000Z,19.07
2017-11-05T18:38:27.000Z,19.06
2017-11-05T18:48:27.000Z,17.18
2017-11-05T18:58:27.000Z,18.33
2017-11-05T19:08:27.000Z,18.65
2017-11-05T19:28:28.000Z,18.77
2017-11-05T19:38:27.000Z,18.78
2017-11-05T19:48:27.000Z,18.81
2017-11-05T19:58:27.000Z,18.8
2017-11-05T20:08:27.000Z,18.81
2017-11-05T20:18:27.000Z,18.81
2017-11-05T20:28:28.000Z,18.85
2017-11-05T20:38:27.000Z,18.86
2017-11-05T20:48:27.000Z,18.87
2017-11-05T20:58:27.000Z,18.9
2017-11-05T21:08:27.000Z,18.93
2017-11-05T21:18:27.000Z,19.08
2017-11-05T21:28:29.000Z,19.19
2017-11-05T21:38:27.000Z,19.31
2017-11-05T21:48:27.000Z,19.4
2017-11-05T21:58:27.000Z,19.48
2017-11-05T22:08:27.000Z,19.57
2017-11-05T22:18:27.000Z,19.5
2017-11-05T22:28:28.000Z,19.63
2017-11-05T22:38:28.000Z,19.72
2017-11-05T22:48:28.000Z,19.6
2017-11-05T22:58:28.000Z,19.64
2017-11-05T23:08:28.000Z,19.7
2017-11-05T23:18:28.000Z,19.68
2017-11-05T23:28:28.000Z,19.68
2017-11-05T23:38:28.000Z,19.75
2017-11-05T23:48:28.000Z,19.77
2017-11-05T23:58:28.000Z,19.77
